<?xml version="1.0" encoding="UTF-8" standalone="no" ?>
<gpx xmlns="http://www.topografix.com/GPX/1/1" xmlns:xsi="http://www.w3.org/2001/XMLSchema-instance" xsi:schemaLocation="http://www.topografix.com/GPX/1/1 http://www.topografix.com/GPX/1/1/gpx.xsd" version="1.1" creator="VisuGPX - https://www.visugpx.com">
  <metadata>
    <name>Val Joly-Col de la Gitte</name>
    <desc><![CDATA[Carte IGN TOP25 : 3531OT.
Niveau D.
Départ à la station de Val Joly avec le télécabine de la Ruelle.
Réalisé par le groupe du jeudi du CAFGI le jeudi 27 janvier 2011 avec ABE, RJO et RCL en SRN, par le groupe du samedi avec RBA.]]></desc>
  </metadata>
  <trk>
    <name><![CDATA[Val Joly-Col de la Gitte - D+]]></name>
    <cmt><![CDATA[Carte IGN TOP25 : 3531OT
Départ à la station de Val Joly avec le télécabine de la Ruelle.]]></cmt>
    <desc><![CDATA[Réalisé par le groupe du jeudi du CAFGI le jeudi 27 janvier 2011 avec ABE, RJO et RCL en SRN, par le groupe du samedi avec RBA en 2002.]]></desc>
    <trkseg>
      <trkpt lat="45.77797" lon="6.65436">
        <ele>1611</ele>
        <time>2020-12-06T08:30:00.371Z</time>
      </trkpt>
      <trkpt lat="45.77738" lon="6.6575">
        <ele>1665</ele>
        <time>2020-12-06T08:41:07.308Z</time>
      </trkpt>
      <trkpt lat="45.77708" lon="6.65886">
        <ele>1691</ele>
        <time>2020-12-06T08:45:53.065Z</time>
      </trkpt>
      <trkpt lat="45.77675" lon="6.66086">
        <ele>1727</ele>
        <time>2020-12-06T08:52:34.550Z</time>
      </trkpt>
      <trkpt lat="45.77607" lon="6.66152">
        <ele>1747</ele>
        <time>2020-12-06T08:56:14.176Z</time>
      </trkpt>
      <trkpt lat="45.77576" lon="6.66204">
        <ele>1758</ele>
        <time>2020-12-06T08:58:12.517Z</time>
      </trkpt>
      <trkpt lat="45.77537" lon="6.66233">
        <ele>1767</ele>
        <time>2020-12-06T08:59:58.013Z</time>
      </trkpt>
      <trkpt lat="45.77512" lon="6.66276">
        <ele>1775</ele>
        <time>2020-12-06T09:01:23.619Z</time>
      </trkpt>
      <trkpt lat="45.7749" lon="6.66391">
        <ele>1789</ele>
        <time>2020-12-06T09:04:16.008Z</time>
      </trkpt>
      <trkpt lat="45.77433" lon="6.66454">
        <ele>1800</ele>
        <time>2020-12-06T09:06:32.789Z</time>
      </trkpt>
      <trkpt lat="45.77396" lon="6.66557">
        <ele>1810</ele>
        <time>2020-12-06T09:08:54.304Z</time>
      </trkpt>
      <trkpt lat="45.77423" lon="6.66662">
        <ele>1818</ele>
        <time>2020-12-06T09:11:01.456Z</time>
      </trkpt>
      <trkpt lat="45.77407" lon="6.66896">
        <ele>1833</ele>
        <time>2020-12-06T09:15:22.729Z</time>
      </trkpt>
      <trkpt lat="45.77446" lon="6.67008">
        <ele>1839</ele>
        <time>2020-12-06T09:17:41.498Z</time>
      </trkpt>
      <trkpt lat="45.77521" lon="6.67343">
        <ele>1860</ele>
        <time>2020-12-06T09:24:16.740Z</time>
      </trkpt>
      <trkpt lat="45.77491" lon="6.67537">
        <ele>1874</ele>
        <time>2020-12-06T09:28:17.328Z</time>
      </trkpt>
      <trkpt lat="45.77395" lon="6.67745">
        <ele>1895</ele>
        <time>2020-12-06T09:33:27.441Z</time>
      </trkpt>
      <trkpt lat="45.7738" lon="6.6783">
        <ele>1902</ele>
        <time>2020-12-06T09:35:21.233Z</time>
      </trkpt>
      <trkpt lat="45.7733" lon="6.67958">
        <ele>1916</ele>
        <time>2020-12-06T09:38:33.434Z</time>
      </trkpt>
      <trkpt lat="45.77244" lon="6.67971">
        <ele>1927</ele>
        <time>2020-12-06T09:41:20.207Z</time>
      </trkpt>
      <trkpt lat="45.77025" lon="6.67938">
        <ele>1959</ele>
        <time>2020-12-06T09:48:35.972Z</time>
      </trkpt>
      <trkpt lat="45.76881" lon="6.67984">
        <ele>1981</ele>
        <time>2020-12-06T09:53:30.850Z</time>
      </trkpt>
      <trkpt lat="45.76816" lon="6.67979">
        <ele>1991</ele>
        <time>2020-12-06T09:55:43.499Z</time>
      </trkpt>
      <trkpt lat="45.76634" lon="6.68032">
        <ele>2020</ele>
        <time>2020-12-06T10:01:59.939Z</time>
      </trkpt>
      <trkpt lat="45.76573" lon="6.68037">
        <ele>2029</ele>
        <time>2020-12-06T10:04:03.035Z</time>
      </trkpt>
      <trkpt lat="45.7643" lon="6.68061">
        <ele>2052</ele>
        <time>2020-12-06T10:09:00.081Z</time>
      </trkpt>
      <trkpt lat="45.76304" lon="6.68042">
        <ele>2072</ele>
        <time>2020-12-06T10:13:18.989Z</time>
      </trkpt>
      <trkpt lat="45.76228" lon="6.68036">
        <ele>2084</ele>
        <time>2020-12-06T10:15:53.326Z</time>
      </trkpt>
      <trkpt lat="45.76181" lon="6.68022">
        <ele>2091</ele>
        <time>2020-12-06T10:17:28.346Z</time>
      </trkpt>
      <trkpt lat="45.76123" lon="6.68001">
        <ele>2100</ele>
        <time>2020-12-06T10:19:29.137Z</time>
      </trkpt>
      <trkpt lat="45.76009" lon="6.67944">
        <ele>2119</ele>
        <time>2020-12-06T10:23:35.480Z</time>
      </trkpt>
      <trkpt lat="45.75811" lon="6.67877">
        <ele>2150</ele>
        <time>2020-12-06T10:30:23.530Z</time>
      </trkpt>
      <trkpt lat="45.75689" lon="6.67826">
        <ele>2169</ele>
        <time>2020-12-06T10:34:35.231Z</time>
      </trkpt>
      <trkpt lat="45.75552" lon="6.67763">
        <ele>2190</ele>
        <time>2020-12-06T10:39:18.254Z</time>
      </trkpt>
      <trkpt lat="45.75384" lon="6.67673">
        <ele>2216</ele>
        <time>2020-12-06T10:45:06.094Z</time>
      </trkpt>
      <trkpt lat="45.75327" lon="6.6762">
        <ele>2225</ele>
        <time>2020-12-06T10:47:14.295Z</time>
      </trkpt>
      <trkpt lat="45.75284" lon="6.67565">
        <ele>2233</ele>
        <time>2020-12-06T10:49:05.709Z</time>
      </trkpt>
      <trkpt lat="45.75193" lon="6.6749">
        <ele>2248</ele>
        <time>2020-12-06T10:52:25.559Z</time>
      </trkpt>
      <trkpt lat="45.75019" lon="6.67377">
        <ele>2273</ele>
        <time>2020-12-06T10:58:13.204Z</time>
      </trkpt>
      <trkpt lat="45.74931" lon="6.67315">
        <ele>2284</ele>
        <time>2020-12-06T11:00:53.546Z</time>
      </trkpt>
      <trkpt lat="45.74783" lon="6.67249">
        <ele>2298</ele>
        <time>2020-12-06T11:04:49.815Z</time>
      </trkpt>
      <trkpt lat="45.74525" lon="6.67212">
        <ele>2307</ele>
        <time>2020-12-06T11:10:47.030Z</time>
      </trkpt>
      <trkpt lat="45.74259" lon="6.67063">
        <ele>2295</ele>
        <time>2020-12-06T11:17:22.513Z</time>
      </trkpt>
      <trkpt lat="45.74203" lon="6.66997">
        <ele>2292</ele>
        <time>2020-12-06T11:19:02.447Z</time>
      </trkpt>
      <trkpt lat="45.74159" lon="6.66897">
        <ele>2289</ele>
        <time>2020-12-06T11:20:56.088Z</time>
      </trkpt>
      <trkpt lat="45.74131" lon="6.6676">
        <ele>2289</ele>
        <time>2020-12-06T11:23:21.010Z</time>
      </trkpt>
      <trkpt lat="45.74097" lon="6.66635">
        <ele>2294</ele>
        <time>2020-12-06T11:25:47.290Z</time>
      </trkpt>
      <trkpt lat="45.74093" lon="6.66512">
        <ele>2302</ele>
        <time>2020-12-06T11:28:28.100Z</time>
      </trkpt>
      <trkpt lat="45.74061" lon="6.66349">
        <ele>2321</ele>
        <time>2020-12-06T11:32:46.497Z</time>
      </trkpt>
      <trkpt lat="45.74061" lon="6.66169">
        <ele>2345</ele>
        <time>2020-12-06T11:37:29.311Z</time>
      </trkpt>
      <trkpt lat="45.74044" lon="6.66074">
        <ele>2357</ele>
        <time>2020-12-06T11:39:55.171Z</time>
      </trkpt>
      <trkpt lat="45.73995" lon="6.66009">
        <ele>2368</ele>
        <time>2020-12-06T11:42:09.830Z</time>
      </trkpt>
      <trkpt lat="45.73993" lon="6.65945">
        <ele>2374</ele>
        <time>2020-12-06T11:43:16.664Z</time>
      </trkpt>
      <trkpt lat="45.74051" lon="6.65618">
        <ele>2380</ele>
        <time>2020-12-06T12:30:00.330Z</time>
      </trkpt>
      <trkpt lat="45.74211" lon="6.65621">
        <ele>2363</ele>
        <time>2020-12-06T12:34:30.198Z</time>
      </trkpt>
      <trkpt lat="45.74292" lon="6.6566">
        <ele>2348</ele>
        <time>2020-12-06T12:37:13.442Z</time>
      </trkpt>
      <trkpt lat="45.74415" lon="6.65766">
        <ele>2314</ele>
        <time>2020-12-06T12:42:07.657Z</time>
      </trkpt>
      <trkpt lat="45.7447" lon="6.65841">
        <ele>2294</ele>
        <time>2020-12-06T12:44:53.592Z</time>
      </trkpt>
      <trkpt lat="45.74542" lon="6.65904">
        <ele>2271</ele>
        <time>2020-12-06T12:47:52.105Z</time>
      </trkpt>
      <trkpt lat="45.74664" lon="6.66007">
        <ele>2236</ele>
        <time>2020-12-06T12:52:13.351Z</time>
      </trkpt>
      <trkpt lat="45.7489" lon="6.66179">
        <ele>2190</ele>
        <time>2020-12-06T12:58:59.249Z</time>
      </trkpt>
      <trkpt lat="45.75122" lon="6.66278">
        <ele>2159</ele>
        <time>2020-12-06T13:05:09.727Z</time>
      </trkpt>
      <trkpt lat="45.75332" lon="6.66285">
        <ele>2130</ele>
        <time>2020-12-06T13:10:45.706Z</time>
      </trkpt>
      <trkpt lat="45.7546" lon="6.66331">
        <ele>2105</ele>
        <time>2020-12-06T13:14:48.290Z</time>
      </trkpt>
      <trkpt lat="45.75546" lon="6.66321">
        <ele>2086</ele>
        <time>2020-12-06T13:17:36.690Z</time>
      </trkpt>
      <trkpt lat="45.75613" lon="6.66278">
        <ele>2069</ele>
        <time>2020-12-06T13:20:07.009Z</time>
      </trkpt>
      <trkpt lat="45.75642" lon="6.66235">
        <ele>2058</ele>
        <time>2020-12-06T13:21:36.257Z</time>
      </trkpt>
      <trkpt lat="45.75669" lon="6.66189">
        <ele>2047</ele>
        <time>2020-12-06T13:23:06.853Z</time>
      </trkpt>
      <trkpt lat="45.75843" lon="6.66161">
        <ele>2000</ele>
        <time>2020-12-06T13:29:27.918Z</time>
      </trkpt>
      <trkpt lat="45.75885" lon="6.66126">
        <ele>1987</ele>
        <time>2020-12-06T13:31:12.889Z</time>
      </trkpt>
      <trkpt lat="45.759" lon="6.6596">
        <ele>1956</ele>
        <time>2020-12-06T13:35:20.773Z</time>
      </trkpt>
      <trkpt lat="45.75963" lon="6.65868">
        <ele>1934</ele>
        <time>2020-12-06T13:38:20.133Z</time>
      </trkpt>
      <trkpt lat="45.76053" lon="6.65791">
        <ele>1910</ele>
        <time>2020-12-06T13:41:41.643Z</time>
      </trkpt>
      <trkpt lat="45.76127" lon="6.65701">
        <ele>1890</ele>
        <time>2020-12-06T13:44:40.085Z</time>
      </trkpt>
      <trkpt lat="45.7622" lon="6.65554">
        <ele>1862</ele>
        <time>2020-12-06T13:49:05.105Z</time>
      </trkpt>
      <trkpt lat="45.76424" lon="6.65399">
        <ele>1810</ele>
        <time>2020-12-06T13:56:50.657Z</time>
      </trkpt>
      <trkpt lat="45.76518" lon="6.65361">
        <ele>1784</ele>
        <time>2020-12-06T14:00:38.489Z</time>
      </trkpt>
      <trkpt lat="45.7664" lon="6.65364">
        <ele>1746</ele>
        <time>2020-12-06T14:06:02.157Z</time>
      </trkpt>
      <trkpt lat="45.7676" lon="6.65387">
        <ele>1703</ele>
        <time>2020-12-06T14:11:56.602Z</time>
      </trkpt>
      <trkpt lat="45.76807" lon="6.65419">
        <ele>1683</ele>
        <time>2020-12-06T14:14:34.948Z</time>
      </trkpt>
      <trkpt lat="45.76905" lon="6.65437">
        <ele>1645</ele>
        <time>2020-12-06T14:19:39.846Z</time>
      </trkpt>
      <trkpt lat="45.76942" lon="6.65462">
        <ele>1629</ele>
        <time>2020-12-06T14:21:44.330Z</time>
      </trkpt>
      <trkpt lat="45.77027" lon="6.65485">
        <ele>1597</ele>
        <time>2020-12-06T14:25:53.009Z</time>
      </trkpt>
      <trkpt lat="45.77115" lon="6.65553">
        <ele>1562</ele>
        <time>2020-12-06T14:30:16.262Z</time>
      </trkpt>
      <trkpt lat="45.77213" lon="6.65509">
        <ele>1530</ele>
        <time>2020-12-06T14:33:52.438Z</time>
      </trkpt>
      <trkpt lat="45.77357" lon="6.65334">
        <ele>1488</ele>
        <time>2020-12-06T14:39:16.058Z</time>
      </trkpt>
      <trkpt lat="45.77455" lon="6.65087">
        <ele>1461</ele>
        <time>2020-12-06T14:44:19.038Z</time>
      </trkpt>
      <trkpt lat="45.77495" lon="6.6502">
        <ele>1453</ele>
        <time>2020-12-06T14:45:54.134Z</time>
      </trkpt>
      <trkpt lat="45.7753" lon="6.64829">
        <ele>1435</ele>
        <time>2020-12-06T14:49:34.987Z</time>
      </trkpt>
      <trkpt lat="45.77535" lon="6.64636">
        <ele>1410</ele>
        <time>2020-12-06T14:53:54.362Z</time>
      </trkpt>
      <trkpt lat="45.77554" lon="6.64493">
        <ele>1383</ele>
        <time>2020-12-06T14:57:45.684Z</time>
      </trkpt>
      <trkpt lat="45.77514" lon="6.64471">
        <ele>1369</ele>
        <time>2020-12-06T14:59:44.562Z</time>
      </trkpt>
      <trkpt lat="45.77452" lon="6.64504">
        <ele>1345</ele>
        <time>2020-12-06T15:03:05.663Z</time>
      </trkpt>
      <trkpt lat="45.77466" lon="6.64328">
        <ele>1297</ele>
        <time>2020-12-06T15:09:20.270Z</time>
      </trkpt>
      <trkpt lat="45.77376" lon="6.64309">
        <ele>1264</ele>
        <time>2020-12-06T15:13:19.417Z</time>
      </trkpt>
      <trkpt lat="45.77371" lon="6.64144">
        <ele>1229</ele>
        <time>2020-12-06T15:17:31.114Z</time>
      </trkpt>
      <trkpt lat="45.77313" lon="6.64146">
        <ele>1217</ele>
        <time>2020-12-06T15:18:52.039Z</time>
      </trkpt>
      <trkpt lat="45.7731" lon="6.63814">
        <ele>1225</ele>
        <time>2020-12-06T15:24:32.590Z</time>
      </trkpt>
    </trkseg>
  </trk>
</gpx>